Temp     Hi    Low   Out    Dew  Wind  Wind   Wind    Hi    Hi   Wind   Heat    THW   THSW                Rain  Solar   Solar Hi Solar   UV    UV    Hi     Heat    Cool    In     In    In     In     In   In Air          Wind  Wind    ISS   Arc.
  Date    Time     Out   Temp   Temp   Hum    Pt. Speed   Dir    Run Speed   Dir  Chill  Index  Index  Index   Bar    Rain  Rate   Rad.  Energy    Rad.  Index  Dose   UV     D-D     D-D    Temp   Hum    Dew   Heat    EMC Density     ET   Samp   Tx   Recept  Int.
------------------------------------------------------------------------------------------------------------------------------------------------------------------------------------------------------------------------------------------------------------------------
 4/18/19 12:30a   44.1   45.0   44.1    80   38.3   3.0     S   1.50   6.0     S   43.0   43.9   42.8   38.1  30.213  0.00  0.00     0     0.00      0     0.0  0.00   0.0   0.435   0.000   72.1    47   50.8   70.9   8.75  .0744    0.000   670    2    100.0   30 
 4/18/19  1:00a   42.9   44.1   42.9    81   37.5   2.0     S   1.00   5.0   SSE   42.9   42.6   42.6   37.8  30.210  0.00  0.00     0     0.00      0     0.0  0.00   0.0   0.460   0.000   71.6    47   50.3   70.2   8.75  .0745    0.001   683    2    100.0   30 
 4/18/19  1:30a   42.3   42.9   42.3    83   37.5   2.0   SSW   1.00   4.0   SSW   42.3   42.1   42.1   37.3  30.198  0.00  0.00     0     0.00      0     0.0  0.00   0.0   0.473   0.000   71.1    47   49.8   69.4   8.75  .0746    0.000   683    2    100.0   30 
 4/18/19  2:00a   41.7   42.3   41.7    84   37.2   2.0     S   1.00   4.0     S   41.7   41.5   41.5   36.7  30.190  0.00  0.00     0     0.00      0     0.0  0.00   0.0   0.485   0.000   70.6    46   48.8   68.7   8.64  .0746    0.001   670    2    100.0   30 
 4/18/19  2:30a   41.1   41.7   41.1    85   36.9   3.0   SSE   1.50   5.0   SSE   39.6   40.9   39.4   34.6  30.184  0.00  0.00     0     0.00      0     0.0  0.00   0.0   0.498   0.000   70.1    46   48.4   68.0   8.65  .0747    0.000   634    2     95.1   30 
 4/18/19  3:00a   40.5   41.1   40.4    85   36.3   2.0   SSE   1.00   5.0   SSE   40.3   40.3   40.1   35.3  30.176  0.00  0.00     0     0.00      0     0.0  0.00   0.0   0.510   0.000   69.7    46   48.0   67.7   8.65  .0748    0.001   683    2    100.0   30 
 4/18/19  3:30a   39.8   40.5   39.8    85   35.7   2.0   SSE   1.00   4.0   SSE   39.5   39.6   39.3   34.5  30.181  0.00  0.00     0     0.00      0     0.0  0.00   0.0   0.525   0.000   69.2    46   47.5   67.3   8.65  .0749    0.000   672    2    100.0   30 
 4/18/19  4:00a   39.2   39.8   39.2    86   35.4   2.0     S   1.00   5.0   SSE   38.9   39.0   38.7   33.9  30.186  0.00  0.00     0     0.00      0     0.0  0.00   0.0   0.537   0.000   68.9    46   47.3   67.1   8.65  .0749    0.000   686    2    100.0   30 
 4/18/19  4:30a   38.9   39.2   38.9    87   35.4   1.0     S   0.50   4.0     S   38.9   38.7   38.7   33.9  30.196  0.00  0.00     0     0.00      0     0.0  0.00   0.0   0.544   0.000   68.5    46   46.9   66.8   8.65  .0750    0.000   679    2    100.0   30 
 4/18/19  5:00a   38.7   38.9   38.7    88   35.5   2.0     S   1.00   5.0     S   38.3   38.6   38.2   33.4  30.198  0.00  0.00     0     0.00      0     0.0  0.00   0.0   0.548   0.000   68.0    46   46.4   66.3   8.65  .0751    0.000   670    2    100.0   30 
 4/18/19  5:30a   38.7   38.8   38.6    89   35.7   3.0     S   1.50   5.0     S   36.9   38.6   36.8   32.0  30.196  0.00  0.00     0     0.00      0     0.0  0.00   0.0   0.548   0.000   67.7    45   45.6   65.9   8.50  .0752    0.000   685    2    100.0   30 
 4/18/19  6:00a   38.9   38.9   38.6    89   35.9   2.0     S   1.00   5.0   SSW   38.6   38.8   38.5   33.7  30.194  0.00  0.00     0     0.00      0     0.0  0.00   0.0   0.544   0.000   67.4    45   45.3   65.5   8.50  .0752    0.000   682    2    100.0   30 
 4/18/19  6:30a   39.4   39.7   38.9    87   35.9   3.0     S   1.50   7.0     S   37.7   39.2   37.5   32.7  30.204  0.00  0.00     2     0.09      7     0.0  0.00   0.0   0.533   0.000   67.0    45   44.9   65.1   8.51  .0753    0.000   672    2    100.0   30 
 4/18/19  7:00a   40.1   40.1   39.4    86   36.2   2.0     S   1.00   4.0     S   39.9   39.9   39.7   35.2  30.217  0.00  0.00    14     0.60     19     0.0  0.00   0.0   0.519   0.000   66.7    45   44.7   64.7   8.52  .0754    0.000   684    2    100.0   30 
 4/18/19  7:30a   41.7   41.7   40.1    86   37.8   1.0     S   0.50   4.0     S   41.7   41.5   41.5   37.3  30.223  0.00  0.00    24     1.03     32     0.0  0.00   0.0   0.485   0.000   66.7    45   44.7   64.7   8.52  .0754    0.000   683    2    100.0   30 
 4/18/19  8:00a   45.3   45.3   41.7    77   38.5   1.0    SE   0.50   4.0   SSE   45.3   45.0   45.0   48.7  30.226  0.00  0.00   185     7.96    288     0.0  0.00   0.5   0.410   0.000   68.5    46   46.9   66.8   8.65  .0751    0.002   669    2    100.0   30 
 4/18/19  8:30a   53.9   53.9   45.4    58   39.5   2.0   ESE   1.00   5.0   ESE   53.9   52.6   52.6   60.3  30.222  0.00  0.00   355    15.27    413     0.7  0.11   1.1   0.231   0.000   70.2    44   47.3   68.0   8.35  .0748    0.000   684    2    100.0   30 
 4/18/19  9:00a   64.9   64.9   54.0    35   36.6   7.0    SE   3.50  16.0     E   64.9   61.7   61.7   69.2  30.219  0.00  0.00   401    17.25    513     1.1  0.18   1.3   0.002   0.000   71.8    44   48.7   70.2   8.31  .0746    0.009   679    2    100.0   30 
 4/18/19  9:30a   69.3   69.3   64.9    28   34.8  11.0     E   5.50  21.0     E   66.7   65.5   62.9   69.9  30.216  0.00  0.00   527    22.66    615     2.2  0.35   3.0   0.000   0.090   73.1    42   48.6   72.0   7.99  .0744    0.000   678    2    100.0   30 
 4/18/19 10:00a   71.1   71.1   69.3    27   35.4  15.0   ESE   7.50  25.0   ESE   66.9   67.6   63.4   70.2  30.214  0.00  0.00   644    27.70    694     2.8  0.45   4.1   0.000   0.127   73.1    43   49.3   72.1   8.13  .0743    0.022   685    2    100.0   30 
 4/18/19 10:30a   72.3   72.3   71.1    26   35.5  16.0    SE   8.00  26.0     E   67.9   69.2   64.8   71.5  30.213  0.00  0.00   733    31.52    788     5.0  0.80   5.7   0.000   0.152   73.0    43   49.2   71.9   8.13  .0744    0.000   674    2    100.0   30 
 4/18/19 11:00a   73.4   73.4   72.3    25   35.4  15.0   ESE   7.50  28.0     E   69.4   70.8   66.8   73.9  30.216  0.00  0.00   819    35.22    861     6.2  1.00   6.8   0.000   0.175   73.1    42   48.6   72.0   7.99  .0744    0.029   682    2    100.0   30 
 4/18/19 11:30a   74.7   74.7   73.4    24   35.5  15.0    SE   7.50  28.0     E   70.9   72.4   68.6   75.3  30.208  0.00  0.00   845    36.34    891     7.4  1.19   8.0   0.000   0.202   73.3    31   40.8   71.3   6.28  .0745    0.000   681    2    100.0   30 
 4/18/19 12:00p   76.3   76.3   74.7    23   35.8  14.0   ESE   7.00  26.0     E   73.0   74.6   71.3   77.5  30.197  0.00  0.00   830    35.69    983     8.4  1.35   8.9   0.000   0.235   74.2    28   39.0   72.3   5.70  .0744    0.031   673    2    100.0   30 
 4/18/19 12:30p   77.0   77.0   76.3    23   36.3  15.0   ESE   7.50  25.0   ESE   73.5   75.6   72.1   79.0  30.184  0.00  0.00   923    39.69   1011     8.6  1.38   9.2   0.000   0.250   73.8    35   44.4   72.4   6.97  .0743    0.000   685    2    100.0   30 
 4/18/19  1:00p   78.0   78.0   77.0    23   37.2  14.0   ESE   7.00  24.0     E   74.9   76.1   73.0   80.4  30.167  0.00  0.00   943    40.55   1018     8.8  1.41   9.3   0.000   0.271   73.6    37   45.7   72.3   7.28  .0743    0.034   674    2    100.0   30 
 4/18/19  1:30p   78.7   78.7   77.9    22   36.6  15.0   ESE   7.50  24.0     E   75.4   76.2   72.9   79.5  30.155  0.00  0.00   888    38.19   1000     8.6  1.38   9.8   0.000   0.285   73.8    37   45.9   72.6   7.27  .0742    0.000   679    2    100.0   30 
 4/18/19  2:00p   80.7   80.7   78.7    22   38.3  14.0    SE   7.00  25.0   ESE   78.0   77.8   75.1   82.9  30.148  0.00  0.00   924    39.74   1027     8.5  1.37   9.3   0.000   0.327   74.0    37   46.1   72.9   7.27  .0741    0.033   686    2    100.0   30 
 4/18/19  2:30p   81.6   81.6   80.6    22   39.1  12.0    SE   6.00  22.0     E   79.6   78.7   76.7   86.1  30.136  0.00  0.00   937    40.30   1056     7.6  1.22   8.7   0.000   0.346   74.2    37   46.2   73.1   7.27  .0741    0.000   673    2    100.0   30 
 4/18/19  3:00p   82.4   82.4   81.6    20   37.3  11.0    SE   5.50  22.0   ESE   80.8   79.3   77.7   87.9  30.124  0.00  0.00   897    38.58    988     6.0  0.96   7.2   0.000   0.363   74.3    37   46.3   73.2   7.26  .0740    0.033   679    2    100.0   30 
 4/18/19  3:30p   83.1   83.2   82.4    19   36.6   9.0    SE   4.50  18.0   ESE   82.3   80.0   79.2   90.0  30.111  0.00  0.00   798    34.32    840     4.8  0.77   5.5   0.000   0.377   74.5    37   46.5   73.4   7.26  .0740    0.000   681    2    100.0   30 
 4/18/19  4:00p   83.2   83.6   82.8    19   36.6   8.0    SE   4.00  18.0   ESE   82.9   80.1   79.8   91.9  30.097  0.00  0.00   743    31.95    800     4.0  0.64   4.8   0.000   0.379   75.2    31   42.5   73.6   6.25  .0740    0.027   671    2    100.0   30 
 4/18/19  4:30p   82.8   83.8   82.8    18   34.9   9.0     E   4.50  18.0   ESE   82.0   79.6   78.8   90.3  30.084  0.00  0.00   634    27.27    733     2.8  0.45   3.5   0.000   0.371   75.4    28   40.0   73.7   5.66  .0740    0.000   683    2    100.0   30 
 4/18/19  5:00p   84.2   84.3   82.8    17   34.6   7.0    SE   3.50  16.0    SE   84.2   81.1   81.1   95.1  30.074  0.00  0.00   585    25.16    636     1.8  0.29   2.3   0.000   0.400   75.7    28   40.3   74.0   5.66  .0739    0.023   685    2    100.0   30 
 4/18/19  5:30p   83.8   84.3   83.7    19   37.1   7.0    SE   3.50  16.0   ESE   83.8   80.8   80.8   94.0  30.064  0.00  0.00   469    20.17    524     0.9  0.14   1.3   0.000   0.392   76.1    26   38.7   74.5   5.45  .0738    0.000   675    2    100.0   30 
 4/18/19  6:00p   82.3   83.8   82.3    26   44.0   6.0   ESE   3.00  16.0     E   82.3   79.9   79.9   90.8  30.060  0.00  0.00   342    14.71    411     0.0  0.00   0.5   0.000   0.360   76.4    28   40.9   75.0   5.68  .0737    0.017   681    2    100.0   30 
 4/18/19  6:30p   73.9   82.3   73.9    34   43.8   6.0   NNW   3.00  13.0   NNW   73.9   72.5   72.5   73.0  30.051  0.00  0.00   233    10.02    309     0.0  0.00   0.0   0.000   0.185   76.4    32   44.4   75.1   6.42  .0736    0.000   683    2    100.0   30 
 4/18/19  7:00p   69.3   73.9   69.3    41   44.6   7.0    NW   3.50  12.0    NW   69.3   66.9   66.9   63.8  30.052  0.00  0.00    64     2.75    132     0.0  0.00   0.0   0.000   0.090   75.9    34   45.5   74.6   6.73  .0737    0.008   672    2    100.0   30 
 4/18/19  7:30p   68.3   69.3   68.3    39   42.4   2.0   WNW   1.00   6.0   WNW   68.3   65.8   65.8   61.6  30.049  0.00  0.00    15     0.65     28     0.0  0.00   0.0   0.000   0.069   76.6    35   46.9   75.5   6.92  .0735    0.000   686    2    100.0   30 
 4/18/19  8:00p   66.5   68.3   66.5    48   46.2   3.0     S   1.50   8.0     S   66.5   64.8   64.8   60.4  30.055  0.00  0.00     0     0.00      0     0.0  0.00   0.0   0.000   0.031   74.7    37   46.7   73.6   7.26  .0738    0.002   683    2    100.0   30 
 4/18/19  8:30p   63.6   66.5   63.6    52   45.6   2.0     S   1.00   5.0   SSE   63.6   62.0   62.0   57.6  30.064  0.00  0.00     0     0.00      0     0.0  0.00   0.0   0.029   0.000   73.6    38   46.4   72.4   7.41  .0740    0.000   672    2    100.0   30 
 4/18/19  9:00p   61.1   63.6   61.1    58   46.2   3.0     S   1.50   5.0     S   61.1   59.7   59.7   55.3  30.075  0.00  0.00     0     0.00      0     0.0  0.00   0.0   0.081   0.000   73.8    41   48.6   72.9   7.80  .0739    0.002   684    2    100.0   30 
 4/18/19  9:30p   59.0   61.1   59.0    59   44.7   1.0   SSW   0.50   3.0   SSW   59.0   57.6   57.6   53.1  30.079  0.00  0.00     0     0.00      0     0.0  0.00   0.0   0.125   0.000   74.3    39   47.7   73.3   7.56  .0739    0.000   683    2    100.0   30 
 4/18/19 10:00p   56.9   59.0   56.9    62   44.0   2.0   SSW   1.00   4.0   SSW   56.9   55.7   55.7   51.2  30.082  0.00  0.00     0     0.00      0     0.0  0.00   0.0   0.169   0.000   73.3    38   46.2   71.9   7.42  .0741    0.002   674    2    100.0   30 
 4/18/19 10:30p   55.5   56.9   55.5    63   43.1   3.0     S   1.50   6.0     S   55.5   54.4   54.4   49.9  30.082  0.00  0.00     0     0.00      0     0.0  0.00   0.0   0.198   0.000   72.3    40   46.6   70.6   7.70  .0742    0.000   684    2    100.0   30 
 4/18/19 11:00p   53.8   55.5   53.8    62   41.1   2.0     S   1.00   5.0     S   53.8   52.7   52.7   48.1  30.077  0.00  0.00     0     0.00      0     0.0  0.00   0.0   0.233   0.000   73.6    39   47.1   72.5   7.58  .0740    0.002   678    2    100.0   30 
 4/18/19 11:30p   52.5   53.8   52.5    64   40.7   3.0   SSW   1.50   5.0     S   52.5   51.6   51.6   47.0  30.072  0.00  0.00     0     0.00      0     0.0  0.00   0.0   0.260   0.000   73.8    39   47.3   72.7   7.57  .0740    0.000   673    2    100.0   30 
 4/19/19 12:00a   51.9   52.5   51.9    66   40.9   2.0   SSW   1.00   4.0   SSW   51.9   51.2   51.2   46.6  30.072  0.00  0.00     0     0.00      0     0.0  0.00   0.0   0.273   0.000   73.6    39   47.1   72.5   7.58  .0740    0.001   685    2    100.0   30 
 4/19/19 12:30a   51.2   51.8   51.2    70   41.7   1.0   SSW   0.50   4.0   SSW   51.2   50.7   50.7   46.1  30.068  0.00  0.00     0     0.00      0     0.0  0.00   0.0   0.287   0.000   73.5    39   47.0   72.3   7.58  .0740    0.000   656    2     98.4   30 
 4/19/19  1:00a   50.4   51.2   50.4    69   40.6   2.0   SSE   1.00   6.0   SSE   50.4   49.9   49.9   45.3  30.057  0.00  0.00     0     0.00      0     0.0  0.00   0.0   0.304   0.000   73.1    39   46.7   71.7   7.59  .0740    0.001   676    2    100.0   30 
 4/19/19  1:30a   49.5   50.4   49.5    72   40.8   2.0   SSE   1.00   3.0   SSE   49.5   49.2   49.2   44.6  30.052  0.00  0.00     0     0.00      0     0.0  0.00   0.0   0.323   0.000   72.8    40   47.1   71.4   7.69  .0740    0.000   682    2    100.0   30 
 4/19/19  2:00a   48.5   49.5   48.5    74   40.6   2.0   SSE   1.00   4.0   SSE   48.5   48.2   48.2   43.6  30.042  0.00  0.00     0     0.00      0     0.0  0.00   0.0   0.344   0.000   72.4    40   46.7   70.7   7.70  .0741    0.001   677    2    100.0   30 
 4/19/19  2:30a   47.7   48.5   47.7    76   40.5   3.0     S   1.50   5.0     S   47.1   47.4   46.8   42.2  30.024  0.00  0.00     0     0.00      0     0.0  0.00   0.0   0.360   0.000   72.1    40   46.4   70.3   7.71  .0741    0.000   679    2    100.0   30 
 4/19/19  3:00a   47.0   47.7   47.0    75   39.5   2.0     S   1.00   5.0     S   47.0   46.7   46.7   42.0  30.020  0.00  0.00     0     0.00      0     0.0  0.00   0.0   0.375   0.000   71.8    40   46.2   69.8   7.71  .0741    0.001   686    2    100.0   30 
 4/19/19  3:30a   46.4   47.0   46.4    77   39.6   2.0     S   1.00   4.0     S   46.4   46.1   46.1   41.4  30.014  0.00  0.00     0     0.00      0     0.0  0.00   0.0   0.387   0.000   71.4    41   46.5   69.3   7.89  .0742    0.000   678    2    100.0   30 
 4/19/19  4:00a   46.2   46.4   46.2    79   40.0   1.0     S   0.50   2.0     S   46.2   46.0   46.0   41.4  30.001  0.00  0.00     0     0.00      0     0.0  0.00   0.0   0.392   0.000   71.1    41   46.2   68.8   7.91  .0742    0.001   676    2    100.0   30 
 4/19/19  4:30a   46.0   46.2   45.8    79   39.9   2.0     S   1.00   4.0     S   46.0   45.8   45.8   41.1  29.990  0.00  0.00     0     0.00      0     0.0  0.00   0.0   0.396   0.000   70.7    41   45.8   68.3   7.92  .0742    0.000   685    2    100.0   30 
 4/19/19  5:00a   46.1   46.3   46.0    79   39.9   2.0   SSW   1.00   3.0   SSW   46.1   45.9   45.9   41.2  29.987  0.00  0.00     0     0.00      0     0.0  0.00   0.0   0.394   0.000   70.6    41   45.7   68.2   7.93  .0742    0.001   679    2    100.0   30 
 4/19/19  5:30a   46.1   46.1   46.0    81   40.6   1.0   SSW   0.50   3.0   SSW   46.1   45.9   45.9   41.3  29.983  0.00  0.00     0     0.00      0     0.0  0.00   0.0   0.394   0.000   70.2    41   45.4   67.7   7.94  .0743    0.000   678    2    100.0   30 
 4/19/19  6:00a   45.9   46.1   45.9    80   40.1   1.0   SSW   0.50   3.0   SSW   45.9   45.7   45.7   41.1  29.981  0.00  0.00     0     0.00      0     0.0  0.00   0.0   0.398   0.000   69.9    41   45.1   67.3   7.95  .0743    0.001   684    2    100.0   30 
 4/19/19  6:30a   45.6   45.9   45.6    81   40.1   2.0   SSW   1.00   4.0   SSW   45.6   45.4   45.4   40.8  29.979  0.00  0.00     1     0.04      7     0.0  0.00   0.0   0.404   0.000   69.7    41   44.9   67.2   7.95  .0744    0.000   674    2    100.0   30 
 4/19/19  7:00a   45.5   45.6   45.5    81   40.0   1.0   SSW   0.50   3.0   SSW   45.5   45.3   45.3   41.0  29.984  0.00  0.00    15     0.65     21     0.0  0.00   0.0   0.406   0.000   69.4    42   45.3   67.1   8.06  .0744    0.000   679    2    100.0   30 
 4/19/19  7:30a   46.5   46.5   45.4    82   41.3   1.0   SSW   0.50   3.0   SSW   46.5   46.4   46.4   42.5  29.983  0.00  0.00    31     1.33     37     0.0  0.00   0.0   0.385   0.000   69.4    42   45.3   67.1   8.06  .0744    0.000   683    2    100.0   30 
 4/19/19  8:00a   50.8   50.8   46.6    75   43.2   1.0   SSW   0.50   3.0   SSW   50.8   50.5   50.5   54.4  29.982  0.00  0.00   187     8.04    278     0.0  0.00   0.5   0.296   0.000   69.6    44   46.7   67.4   8.35  .0743    0.002   673    2    100.0   30 
 4/19/19  8:30a   56.7   56.7   50.9    63   44.2   1.0     S   0.50   4.0     S   56.7   55.6   55.6   62.4  29.970  0.00  0.00   326    14.02    417     0.1  0.02   0.7   0.173   0.000   70.1    44   47.2   67.8   8.35  .0742    0.000   684    2    100.0   30 
 4/19/19  9:00a   62.7   62.7   56.7    52   44.8   2.0     S   1.00   5.0     S   62.7   61.0   61.0   69.2  29.959  0.00  0.00   436    18.75    506     1.2  0.19   1.9   0.048   0.000   71.6    43   47.9   69.8   8.19  .0740    0.008   685    2    100.0   30 
 4/19/19  9:30a   68.3   68.3   62.7    41   43.7   2.0    SE   1.00   4.0    SE   68.3   66.0   66.0   76.3  29.947  0.00  0.00   595    25.59    715     2.4  0.39   3.4   0.000   0.069   71.8    42   47.5   70.0   8.01  .0739    0.000   670    2    100.0   30 
 4/19/19 10:00a   74.3   74.3   68.3    30   40.8   6.0    SE   3.00  15.0     E   74.3   72.6   72.6   83.4  29.940  0.00  0.00   714    30.71    791     3.6  0.58   4.4   0.000   0.194   72.1    42   47.7   70.5   8.01  .0738    0.017   686    2    100.0   30 
 4/19/19 10:30a   75.7   76.0   74.4    27   39.3  11.0     E   5.50  18.0     E   73.4   74.0   71.7   79.0  29.927  0.00  0.00   665    28.60    844     4.3  0.69   6.1   0.000   0.223   72.3    41   47.3   70.7   7.86  .0738    0.000   678    2    100.0   30 
 4/19/19 11:00a   76.7   76.7   75.3    24   37.2  11.0     E   5.50  21.0   ESE   74.4   75.2   72.9   80.5  29.923  0.00  0.00   697    29.97    921     5.6  0.90   7.0   0.000   0.244   72.3    41   47.3   70.7   7.86  .0738    0.023   675    2    100.0   30 
 4/19/19 11:30a   78.1   78.3   76.7    24   38.4  10.0   ESE   5.00  18.0   ESE   76.3   76.2   74.4   82.3  29.916  0.00  0.00   753    32.38   1083     5.9  0.95   8.6   0.000   0.273   72.4    40   46.7   70.7   7.70  .0738    0.000   684    2    100.0   30 
 4/19/19 12:00p   79.5   79.5   77.4    23   38.4  10.0   ESE   5.00  20.0    SE   77.9   76.9   75.3   83.4  29.909  0.00  0.00   769    33.07   1018     7.3  1.17   9.9   0.000   0.302   72.8    40   47.1   71.4   7.69  .0737    0.026   673    2    100.0   30 
 4/19/19 12:30p   80.4   80.9   79.5    20   35.6  10.0   ESE   5.00  22.0     E   78.8   77.4   75.8   84.7  29.895  0.00  0.00   986    42.40   1143     8.4  1.35  10.2   0.000   0.321   73.1    40   47.3   71.8   7.69  .0736    0.000   681    2    100.0   30 
 4/19/19  1:00p   81.0   81.1   80.2    21   37.4  12.0     E   6.00  22.0     E   78.9   78.0   75.9   84.8  29.884  0.00  0.00  1033    44.42   1157     9.3  1.49  10.4   0.000   0.333   73.6    39   47.1   72.5   7.58  .0735    0.032   684    2    100.0   30 
 4/19/19  1:30p   81.8   82.3   81.0    18   34.1  12.0     E   6.00  28.0   ENE   79.9   78.5   76.6   84.0  29.874  0.00  0.00   900    38.71   1106     8.5  1.37  10.0   0.000   0.350   73.8    39   47.3   72.7   7.57  .0735    0.000   671    2    100.0   30